createdAt,value
2022-11-07T00:00:25.982Z,13.25
2022-11-07T00:02:52.454Z,13.82
2022-11-07T00:05:18.862Z,13.77
2022-11-07T00:07:45.304Z,13.35
2022-11-07T00:10:11.644Z,13.48
2022-11-07T00:12:38.157Z,13.43
2022-11-07T00:15:06.237Z,12.63
2022-11-07T00:17:32.626Z,12.40
2022-11-07T00:19:59.085Z,13.75
2022-11-07T00:22:25.630Z,12.95
2022-11-07T00:24:52.259Z,13.35
2022-11-07T00:27:19.778Z,13.07
2022-11-07T00:29:46.352Z,14.63
2022-11-07T00:32:12.692Z,13.65
2022-11-07T00:34:39.059Z,13.57
2022-11-07T00:37:05.495Z,13.80
2022-11-07T00:39:32.104Z,14.07
2022-11-07T00:41:58.551Z,13.50
2022-11-07T00:44:24.946Z,14.52
2022-11-07T00:46:51.323Z,14.13
2022-11-07T00:49:17.692Z,13.30
2022-11-07T00:51:44.105Z,13.85
2022-11-07T00:54:10.726Z,14.23
2022-11-07T00:56:37.298Z,13.65
2022-11-07T00:59:03.811Z,13.02
2022-11-07T01:01:33.323Z,14.60
2022-11-07T01:04:18.352Z,13.27
2022-11-07T01:06:46.623Z,15.32
2022-11-07T01:09:21.256Z,13.88
2022-11-07T01:11:48.703Z,13.40
2022-11-07T01:14:18.647Z,12.82
2022-11-07T01:16:45.057Z,16.60
2022-11-07T01:19:11.615Z,13.07
2022-11-07T01:21:39.830Z,13.23
2022-11-07T01:24:08.340Z,12.70
2022-11-07T01:26:36.810Z,11.95
2022-11-07T01:29:03.733Z,12.85
2022-11-07T01:31:31.782Z,12.23
2022-11-07T01:33:59.630Z,13.02
2022-11-07T01:36:26.972Z,12.70
2022-11-07T01:38:53.829Z,14.98
2022-11-07T01:41:25.400Z,12.65
2022-11-07T01:43:54.270Z,14.55
2022-11-07T01:46:22.378Z,12.88
2022-11-07T01:49:06.598Z,12.57
2022-11-07T01:51:39.193Z,13.40
2022-11-07T01:54:08.079Z,13.90
2022-11-07T01:56:39.194Z,14.63
2022-11-07T01:59:06.814Z,13.70
2022-11-07T02:01:33.504Z,13.80
2022-11-07T02:04:00.756Z,13.63
2022-11-07T02:06:37.493Z,13.98
2022-11-07T02:09:04.380Z,16.83
2022-11-07T02:11:31.506Z,13.50
2022-11-07T02:13:57.932Z,15.95
2022-11-07T02:16:24.421Z,13.00
2022-11-07T02:18:50.926Z,13.27
2022-11-07T02:21:47.618Z,14.00
2022-11-07T02:24:27.005Z,14.68
2022-11-07T02:26:55.979Z,15.57
2022-11-07T02:29:24.524Z,14.48
2022-11-07T02:32:05.774Z,12.90
2022-11-07T02:34:32.174Z,12.25
2022-11-07T02:37:00.771Z,16.92
2022-11-07T02:39:27.331Z,15.55
2022-11-07T02:41:55.651Z,12.93
2022-11-07T02:44:22.479Z,12.77
2022-11-07T02:46:49.509Z,13.75
2022-11-07T02:49:15.926Z,14.15
2022-11-07T02:51:42.317Z,13.80
2022-11-07T02:54:08.807Z,12.30
2022-11-07T02:56:35.436Z,12.77
2022-11-07T02:59:02.172Z,13.23
2022-11-07T03:01:28.979Z,13.25
2022-11-07T03:03:55.444Z,12.65
2022-11-07T03:06:24.643Z,12.55
2022-11-07T03:08:51.668Z,12.85
2022-11-07T03:11:21.243Z,14.60
2022-11-07T03:13:49.836Z,12.73
2022-11-07T03:16:18.406Z,12.88
2022-11-07T03:18:44.805Z,12.70
2022-11-07T03:21:11.171Z,16.60
2022-11-07T03:23:37.689Z,13.00
2022-11-07T03:26:04.733Z,17.40
2022-11-07T03:28:31.603Z,12.85
2022-11-07T03:31:02.169Z,14.05
2022-11-07T03:33:29.893Z,13.95
2022-11-07T03:35:56.517Z,15.40
2022-11-07T03:38:22.997Z,12.80
2022-11-07T03:40:49.455Z,15.18
2022-11-07T03:43:16.344Z,12.88
2022-11-07T03:45:43.115Z,12.40
2022-11-07T03:48:09.462Z,13.05
2022-11-07T03:50:35.906Z,15.38
2022-11-07T03:53:02.302Z,14.90
2022-11-07T03:55:28.643Z,15.40
2022-11-07T03:57:54.999Z,13.68
2022-11-07T04:00:21.844Z,20.20
2022-11-07T04:02:48.282Z,12.80
2022-11-07T04:05:14.803Z,12.48
2022-11-07T04:07:41.165Z,15.32
2022-11-07T04:10:07.739Z,19.75
2022-11-07T04:12:52.797Z,13.02
2022-11-07T04:15:37.658Z,13.30
2022-11-07T04:18:04.064Z,19.30
2022-11-07T04:20:30.476Z,13.60
2022-11-07T04:22:56.917Z,16.92
2022-11-07T04:25:43.424Z,15.95
2022-11-07T04:28:09.777Z,14.00
2022-11-07T04:30:36.173Z,15.70
2022-11-07T04:33:03.207Z,22.58
2022-11-07T04:35:32.376Z,18.02
2022-11-07T04:38:00.109Z,16.38
2022-11-07T04:40:27.922Z,14.80
2022-11-07T04:42:54.774Z,16.58
2022-11-07T04:45:21.152Z,21.02
2022-11-07T04:47:47.763Z,15.52
2022-11-07T04:50:17.238Z,12.57
2022-11-07T04:52:44.444Z,15.77
2022-11-07T04:55:18.836Z,17.00
2022-11-07T04:57:45.594Z,16.67
2022-11-07T05:00:12.572Z,17.17
2022-11-07T05:02:39.016Z,16.25
2022-11-07T05:05:06.098Z,20.42
2022-11-07T05:07:32.431Z,15.23
2022-11-07T05:09:58.817Z,12.63
2022-11-07T05:12:25.205Z,13.65
2022-11-07T05:14:51.593Z,14.55
2022-11-07T05:17:18.093Z,15.45
2022-11-07T05:19:44.715Z,17.77
2022-11-07T05:22:30.157Z,17.15
2022-11-07T05:24:56.537Z,13.38
2022-11-07T05:27:24.046Z,14.65
2022-11-07T05:29:50.734Z,15.57
2022-11-07T05:32:17.298Z,16.17
2022-11-07T05:34:43.756Z,14.27
2022-11-07T05:37:20.707Z,18.17
2022-11-07T05:39:49.925Z,17.27
2022-11-07T05:42:20.322Z,22.92
2022-11-07T05:44:46.834Z,16.02
2022-11-07T05:47:13.199Z,14.52
2022-11-07T05:49:39.702Z,18.92
2022-11-07T05:52:06.117Z,15.02
2022-11-07T05:54:33.168Z,21.20
2022-11-07T05:56:59.529Z,18.83
2022-11-07T05:59:25.916Z,21.88
2022-11-07T06:01:53.491Z,22.02
2022-11-07T06:04:20.067Z,17.83
2022-11-07T06:06:46.503Z,18.38
2022-11-07T06:09:12.905Z,18.55
2022-11-07T06:11:39.387Z,15.32
2022-11-07T06:14:05.961Z,19.48
2022-11-07T06:16:32.536Z,21.85
2022-11-07T06:18:58.884Z,15.27
2022-11-07T06:21:25.325Z,21.60
2022-11-07T06:23:51.909Z,18.73
2022-11-07T06:26:18.283Z,16.80
2022-11-07T06:28:44.741Z,20.20
2022-11-07T06:31:11.401Z,19.42
2022-11-07T06:33:37.827Z,22.02
2022-11-07T06:36:06.624Z,17.20
2022-11-07T06:38:33.265Z,15.25
2022-11-07T06:41:11.505Z,18.77
2022-11-07T06:43:38.686Z,21.15
2022-11-07T06:46:08.409Z,24.45
2022-11-07T06:48:34.876Z,24.70
2022-11-07T06:51:03.494Z,19.52
2022-11-07T06:53:29.981Z,15.50
2022-11-07T06:55:59.813Z,21.63
2022-11-07T06:58:26.333Z,16.98
2022-11-07T07:00:53.554Z,22.75
2022-11-07T07:03:20.040Z,15.13
2022-11-07T07:05:46.440Z,21.55
2022-11-07T07:08:14.072Z,19.05
2022-11-07T07:10:43.619Z,18.98
2022-11-07T07:13:10.423Z,20.15
2022-11-07T07:15:49.918Z,21.58
2022-11-07T07:20:43.351Z,15.95
2022-11-07T07:23:09.755Z,19.35
2022-11-07T07:25:36.150Z,15.85
2022-11-07T07:28:02.518Z,16.45
2022-11-07T07:30:28.879Z,13.20
2022-11-07T07:32:55.235Z,22.45
2022-11-07T07:35:22.218Z,20.60
2022-11-07T07:37:52.397Z,24.00
2022-11-07T07:40:20.081Z,19.20
2022-11-07T07:42:47.034Z,18.80
2022-11-07T07:45:15.491Z,18.92
2022-11-07T07:47:42.338Z,20.52
2022-11-07T07:50:10.855Z,18.33
2022-11-07T07:52:37.648Z,14.38
2022-11-07T07:55:04.924Z,17.88
2022-11-07T07:57:31.279Z,18.67
2022-11-07T07:59:57.671Z,20.00
2022-11-07T08:02:24.075Z,22.42
2022-11-07T08:04:50.525Z,19.40
2022-11-07T08:07:17.116Z,19.90
2022-11-07T08:09:43.485Z,20.95
2022-11-07T08:12:09.838Z,18.30
2022-11-07T08:14:36.685Z,24.27
2022-11-07T08:17:03.593Z,28.10
2022-11-07T08:19:29.964Z,17.58
2022-11-07T08:21:56.363Z,23.95
2022-11-07T08:24:22.914Z,22.55
2022-11-07T08:26:49.379Z,18.15
2022-11-07T08:29:15.897Z,18.02
2022-11-07T08:31:42.556Z,19.65
2022-11-07T08:34:08.974Z,17.10
2022-11-07T08:36:35.655Z,14.52
2022-11-07T08:39:02.187Z,20.92
2022-11-07T08:41:28.659Z,18.95
2022-11-07T08:43:55.017Z,19.77
2022-11-07T08:46:21.368Z,20.17
2022-11-07T08:48:47.853Z,21.35
2022-11-07T08:51:14.223Z,15.70
2022-11-07T08:53:40.597Z,20.67
2022-11-07T08:56:09.155Z,16.02
2022-11-07T08:58:36.820Z,16.83
2022-11-07T09:01:10.272Z,17.98
2022-11-07T09:03:45.962Z,19.33
2022-11-07T09:06:12.984Z,20.90
2022-11-07T09:08:40.844Z,19.05
2022-11-07T09:11:07.507Z,15.27
2022-11-07T09:13:34.499Z,19.35
2022-11-07T09:16:03.228Z,20.63
2022-11-07T09:18:30.029Z,17.63
2022-11-07T09:20:57.712Z,14.30
2022-11-07T09:23:24.321Z,15.35
2022-11-07T09:25:50.814Z,17.33
2022-11-07T09:28:17.227Z,16.08
2022-11-07T09:30:43.681Z,19.63
2022-11-07T09:33:10.083Z,16.95
2022-11-07T09:35:36.456Z,21.02
2022-11-07T09:38:02.909Z,17.52
2022-11-07T09:40:43.535Z,19.17
2022-11-07T09:43:42.682Z,13.52
2022-11-07T09:46:27.473Z,15.35
2022-11-07T09:49:14.466Z,19.17
2022-11-07T09:51:45.636Z,15.65
2022-11-07T09:54:20.488Z,18.30
2022-11-07T09:56:47.004Z,16.55
2022-11-07T09:59:25.741Z,17.75
2022-11-07T10:01:52.475Z,14.35
2022-11-07T10:04:26.102Z,20.67
2022-11-07T10:07:09.163Z,17.45
2022-11-07T10:09:58.698Z,23.25
2022-11-07T10:12:45.806Z,16.30
2022-11-07T10:15:26.921Z,19.20
2022-11-07T10:17:58.394Z,20.20
2022-11-07T10:20:33.218Z,27.25
2022-11-07T10:23:22.669Z,22.63
2022-11-07T10:26:10.426Z,34.83
2022-11-07T10:28:52.749Z,26.67
2022-11-07T10:31:19.566Z,19.67
2022-11-07T10:33:56.741Z,26.25
2022-11-07T10:36:31.338Z,21.30
2022-11-07T10:38:58.091Z,22.20
2022-11-07T10:41:31.616Z,20.83
2022-11-07T10:44:02.345Z,22.27
2022-11-07T10:46:41.813Z,20.42
2022-11-07T10:49:18.870Z,20.90
2022-11-07T10:51:45.360Z,18.92
2022-11-07T10:54:31.344Z,22.58
2022-11-07T10:57:05.564Z,24.65
2022-11-07T10:59:36.579Z,22.95
2022-11-07T11:02:19.698Z,21.52
2022-11-07T11:04:54.973Z,17.63
2022-11-07T11:07:28.507Z,20.27
2022-11-07T11:09:57.849Z,15.38
2022-11-07T11:12:32.233Z,21.42
2022-11-07T11:15:05.009Z,21.08
2022-11-07T11:17:31.582Z,19.05
2022-11-07T11:19:58.060Z,24.77
2022-11-07T11:22:25.844Z,25.40
2022-11-07T11:25:14.868Z,20.58
2022-11-07T11:27:41.654Z,22.15
2022-11-07T11:30:15.283Z,21.20
2022-11-07T11:33:06.014Z,21.73
2022-11-07T11:35:41.877Z,16.35
2022-11-07T11:38:27.639Z,20.38
2022-11-07T11:41:10.574Z,16.13
2022-11-07T11:43:46.551Z,21.98
2022-11-07T11:46:29.975Z,17.95
2022-11-07T11:49:09.562Z,23.33
2022-11-07T11:51:43.220Z,21.83
2022-11-07T11:54:12.237Z,23.52
2022-11-07T11:56:51.306Z,20.00
2022-11-07T11:59:52.327Z,18.27
2022-11-07T12:02:24.625Z,18.15
2022-11-07T12:05:09.930Z,17.80
2022-11-07T12:08:04.256Z,16.95
2022-11-07T12:10:55.038Z,18.02
2022-11-07T12:13:30.929Z,19.65
2022-11-07T12:16:08.548Z,21.60
2022-11-07T12:19:10.380Z,19.95
2022-11-07T12:21:48.657Z,21.55
2022-11-07T12:24:39.527Z,16.85
2022-11-07T12:27:24.116Z,25.35
2022-11-07T12:30:10.191Z,15.95
2022-11-07T12:33:02.699Z,23.17
2022-11-07T12:35:54.829Z,17.70
2022-11-07T12:38:55.007Z,22.17
2022-11-07T12:41:44.942Z,26.58
2022-11-07T12:44:17.041Z,26.73
2022-11-07T12:46:58.347Z,25.75
2022-11-07T12:49:43.068Z,26.65
2022-11-07T12:52:24.953Z,17.73
2022-11-07T12:55:00.323Z,18.73
2022-11-07T12:57:36.566Z,21.08
2022-11-07T13:00:29.685Z,19.73
2022-11-07T13:03:05.609Z,20.17
2022-11-07T13:05:46.936Z,20.98
2022-11-07T13:08:40.681Z,21.85
2022-11-07T13:11:25.729Z,21.48
2022-11-07T13:14:01.289Z,19.13
2022-11-07T13:16:30.337Z,19.92
2022-11-07T13:19:12.064Z,19.48
2022-11-07T13:21:42.832Z,22.52
2022-11-07T13:24:21.671Z,21.45
2022-11-07T13:26:48.546Z,25.67
2022-11-07T13:29:33.398Z,22.35
2022-11-07T13:32:15.982Z,19.67
2022-11-07T13:34:50.823Z,19.83
2022-11-07T13:37:21.539Z,23.58
2022-11-07T13:39:51.692Z,26.90
2022-11-07T13:44:53.632Z,24.80
2022-11-07T13:47:32.360Z,20.38
2022-11-07T13:50:07.757Z,22.95
2022-11-07T13:52:54.331Z,13.60
2022-11-07T13:55:25.496Z,15.65
2022-11-07T13:58:06.899Z,24.52
2022-11-07T14:00:34.806Z,27.65
2022-11-07T14:03:01.548Z,23.77
2022-11-07T14:05:33.082Z,21.45
2022-11-07T14:08:12.464Z,22.10
2022-11-07T14:10:49.116Z,21.63
2022-11-07T14:13:39.665Z,21.23
2022-11-07T14:16:23.656Z,22.15
2022-11-07T14:19:27.823Z,20.20
2022-11-07T14:21:55.658Z,17.58
2022-11-07T14:24:28.032Z,19.15
2022-11-07T14:27:07.401Z,19.90
2022-11-07T14:29:34.078Z,26.87
2022-11-07T14:32:02.710Z,21.52
2022-11-07T14:34:29.348Z,22.33
2022-11-07T14:37:01.110Z,21.33
2022-11-07T14:39:30.148Z,22.80
2022-11-07T14:41:58.890Z,25.52
2022-11-07T14:44:53.876Z,20.40
2022-11-07T14:47:25.352Z,19.63
2022-11-07T14:49:53.006Z,17.67
2022-11-07T14:52:25.274Z,23.45
2022-11-07T14:55:20.673Z,26.23
2022-11-07T14:57:47.717Z,22.85
2022-11-07T15:00:17.208Z,22.15
2022-11-07T15:02:47.404Z,23.80
2022-11-07T15:05:27.916Z,25.75
2022-11-07T15:07:56.226Z,31.50
2022-11-07T15:10:30.095Z,22.15
2022-11-07T15:13:03.034Z,29.98
2022-11-07T15:15:32.467Z,21.92
2022-11-07T15:18:07.064Z,21.73
2022-11-07T15:20:36.607Z,21.60
2022-11-07T15:23:28.102Z,20.48
2022-11-07T15:26:11.481Z,20.95
2022-11-07T15:28:51.348Z,20.80
2022-11-07T15:31:29.698Z,16.75
2022-11-07T15:33:58.650Z,24.40
2022-11-07T15:36:25.833Z,20.73
2022-11-07T15:38:54.025Z,29.42
2022-11-07T15:41:20.961Z,30.73
2022-11-07T15:43:47.434Z,21.65
2022-11-07T15:46:51.367Z,20.48
2022-11-07T15:49:38.526Z,19.23
2022-11-07T15:52:10.538Z,19.27
2022-11-07T15:54:50.018Z,24.92
2022-11-07T15:57:20.685Z,25.10
2022-11-07T15:59:54.561Z,21.83
2022-11-07T16:02:33.288Z,22.45
2022-11-07T16:05:00.522Z,25.80
2022-11-07T16:07:29.320Z,20.92
2022-11-07T16:10:07.542Z,18.08
2022-11-07T16:12:42.755Z,23.88
2022-11-07T16:15:16.918Z,23.80
2022-11-07T16:17:47.721Z,24.88
2022-11-07T16:20:26.048Z,24.17
2022-11-07T16:22:56.574Z,21.25
2022-11-07T16:25:26.180Z,24.42
2022-11-07T16:27:56.569Z,22.70
2022-11-07T16:30:25.897Z,25.40
2022-11-07T16:33:01.945Z,19.13
2022-11-07T16:35:37.603Z,30.52
2022-11-07T16:38:19.320Z,19.15
2022-11-07T16:41:06.496Z,22.63
2022-11-07T16:43:38.368Z,19.98
2022-11-07T16:46:05.649Z,22.33
2022-11-07T16:48:32.288Z,28.23
2022-11-07T16:50:58.711Z,24.25
2022-11-07T16:53:25.916Z,22.98
2022-11-07T16:56:00.807Z,20.33
2022-11-07T16:58:29.692Z,23.42
2022-11-07T17:00:58.920Z,23.52
2022-11-07T17:03:31.486Z,22.33
2022-11-07T17:06:00.414Z,21.70
2022-11-07T17:08:34.878Z,21.33
2022-11-07T17:11:01.272Z,28.15
2022-11-07T17:13:27.641Z,19.20
2022-11-07T17:15:54.789Z,25.75
2022-11-07T17:18:23.538Z,26.13
2022-11-07T17:20:51.955Z,22.70
2022-11-07T17:23:19.722Z,19.75
2022-11-07T17:25:50.772Z,28.60
2022-11-07T17:28:17.630Z,20.83
2022-11-07T17:30:44.285Z,25.02
2022-11-07T17:33:10.813Z,20.95
2022-11-07T17:35:37.767Z,22.42
2022-11-07T17:38:04.244Z,28.17
2022-11-07T17:40:32.534Z,26.58
2022-11-07T17:42:59.618Z,29.77
2022-11-07T17:45:27.113Z,32.75
2022-11-07T17:47:53.995Z,27.77
2022-11-07T17:50:21.714Z,29.63
2022-11-07T17:52:48.402Z,21.70
2022-11-07T17:55:15.118Z,22.55
2022-11-07T17:57:43.339Z,23.50
2022-11-07T18:00:19.050Z,19.38
2022-11-07T18:02:47.967Z,18.33
2022-11-07T18:05:17.284Z,18.55
2022-11-07T18:07:44.651Z,18.47
2022-11-07T18:10:15.653Z,21.90
2022-11-07T18:12:43.513Z,23.25
2022-11-07T18:15:13.301Z,21.40
2022-11-07T18:17:40.890Z,22.77
2022-11-07T18:20:09.192Z,20.88
2022-11-07T18:22:37.666Z,23.02
2022-11-07T18:25:08.421Z,23.42
2022-11-07T18:27:34.953Z,24.70
2022-11-07T18:30:02.921Z,22.42
2022-11-07T18:32:34.623Z,25.20
2022-11-07T18:35:04.787Z,33.55
2022-11-07T18:37:31.746Z,28.10
2022-11-07T18:39:58.132Z,21.45
2022-11-07T18:42:24.535Z,25.83
2022-11-07T18:44:51.014Z,24.27
2022-11-07T18:47:17.402Z,25.00
2022-11-07T18:49:44.440Z,23.52
2022-11-07T18:52:10.852Z,24.27
2022-11-07T18:54:37.493Z,19.45
2022-11-07T18:57:03.939Z,23.75
2022-11-07T18:59:30.282Z,23.55
2022-11-07T19:01:56.757Z,17.60
2022-11-07T19:04:23.429Z,25.70
2022-11-07T19:06:57.020Z,23.40
2022-11-07T19:09:25.887Z,25.48
2022-11-07T19:11:52.477Z,23.42
2022-11-07T19:14:19.545Z,32.50
2022-11-07T19:16:46.062Z,29.55
2022-11-07T19:19:12.523Z,34.10
2022-11-07T19:21:43.583Z,28.83
2022-11-07T19:24:10.162Z,24.48
2022-11-07T19:26:38.413Z,21.85
2022-11-07T19:29:05.711Z,22.90
2022-11-07T19:31:34.748Z,28.17
2022-11-07T19:34:01.617Z,20.67
2022-11-07T19:36:28.141Z,21.92
2022-11-07T19:38:54.627Z,29.63
2022-11-07T19:41:21.092Z,19.00
2022-11-07T19:43:50.633Z,24.85
2022-11-07T19:46:22.447Z,27.75
2022-11-07T19:48:49.806Z,26.00
2022-11-07T19:51:22.207Z,20.08
2022-11-07T19:53:57.616Z,34.17
2022-11-07T19:56:26.589Z,27.73
2022-11-07T19:58:54.318Z,30.40
2022-11-07T20:01:25.601Z,27.27
2022-11-07T20:03:53.524Z,28.13
2022-11-07T20:06:22.894Z,28.08
2022-11-07T20:08:49.961Z,25.07
2022-11-07T20:11:21.781Z,34.40
2022-11-07T20:13:48.549Z,27.15
2022-11-07T20:16:15.269Z,31.90
2022-11-07T20:18:42.220Z,35.83
2022-11-07T20:21:13.067Z,38.67
2022-11-07T20:23:41.036Z,42.53
2022-11-07T20:26:13.809Z,37.97
2022-11-07T20:28:40.732Z,37.13
2022-11-07T20:31:37.443Z,43.55
2022-11-07T20:34:07.658Z,48.67
2022-11-07T20:39:01.779Z,42.38
2022-11-07T20:41:28.247Z,46.63
2022-11-07T20:43:55.529Z,38.45
2022-11-07T20:46:22.085Z,43.22
2022-11-07T20:48:48.765Z,43.90
2022-11-07T20:51:19.937Z,42.22
2022-11-07T20:53:50.324Z,43.08
2022-11-07T20:56:18.850Z,39.17
2022-11-07T20:58:46.415Z,42.83
2022-11-07T21:01:21.827Z,39.90
2022-11-07T21:03:48.398Z,38.92
2022-11-07T21:06:15.206Z,40.80
2022-11-07T21:08:44.561Z,39.38
2022-11-07T21:11:12.873Z,35.47
2022-11-07T21:13:40.052Z,41.45
2022-11-07T21:16:06.863Z,39.38
2022-11-07T21:18:33.502Z,35.58
2022-11-07T21:21:12.379Z,37.50
2022-11-07T21:23:39.069Z,41.55
2022-11-07T21:26:08.520Z,35.35
2022-11-07T21:28:36.029Z,42.47
2022-11-07T21:31:05.396Z,40.47
2022-11-07T21:33:32.519Z,42.07
2022-11-07T21:35:58.982Z,43.53
2022-11-07T21:38:25.422Z,40.03
2022-11-07T21:40:52.845Z,35.75
2022-11-07T21:43:19.879Z,37.22
2022-11-07T21:45:46.458Z,36.78
2022-11-07T21:48:12.787Z,35.70
2022-11-07T21:50:45.083Z,31.92
2022-11-07T21:53:12.070Z,29.75
2022-11-07T21:55:38.520Z,32.67
2022-11-07T21:58:04.898Z,24.15
2022-11-07T22:00:35.766Z,27.23
2022-11-07T22:03:03.624Z,25.67
2022-11-07T22:05:30.006Z,31.80
2022-11-07T22:07:56.741Z,20.63
2022-11-07T22:10:23.222Z,23.98
2022-11-07T22:12:51.204Z,20.52
2022-11-07T22:15:17.711Z,21.92
2022-11-07T22:17:44.109Z,20.13
2022-11-07T22:20:11.400Z,18.77
2022-11-07T22:22:37.778Z,16.20
2022-11-07T22:25:04.802Z,24.45
2022-11-07T22:27:31.223Z,21.33
2022-11-07T22:29:57.816Z,19.42
2022-11-07T22:32:24.205Z,22.80
2022-11-07T22:34:50.666Z,16.90
2022-11-07T22:37:17.085Z,20.00
2022-11-07T22:39:43.467Z,19.27
2022-11-07T22:42:09.821Z,16.88
2022-11-07T22:44:36.348Z,20.05
2022-11-07T22:47:02.821Z,23.33
2022-11-07T22:49:29.394Z,23.38
2022-11-07T22:51:55.821Z,18.83
2022-11-07T22:54:22.277Z,21.55
2022-11-07T22:56:48.630Z,18.52
2022-11-07T22:59:15.025Z,19.50
2022-11-07T23:01:42.577Z,16.65
2022-11-07T23:04:13.898Z,21.90
2022-11-07T23:06:40.502Z,20.92
2022-11-07T23:09:07.038Z,17.33
2022-11-07T23:11:51.073Z,15.82
2022-11-07T23:14:20.719Z,14.88
2022-11-07T23:16:50.788Z,15.50
2022-11-07T23:19:19.808Z,20.63
2022-11-07T23:21:46.823Z,16.58
2022-11-07T23:24:13.657Z,20.02
2022-11-07T23:26:40.798Z,15.77
2022-11-07T23:29:19.137Z,14.35
2022-11-07T23:31:47.461Z,18.00
2022-11-07T23:34:14.534Z,21.58
2022-11-07T23:36:43.967Z,14.23
2022-11-07T23:39:16.619Z,17.30
2022-11-07T23:41:43.615Z,12.48
2022-11-07T23:44:11.283Z,14.90
2022-11-07T23:46:56.433Z,13.13
2022-11-07T23:49:41.675Z,15.10
2022-11-07T23:52:08.292Z,14.20
2022-11-07T23:54:52.924Z,13.43
2022-11-07T23:57:20.317Z,15.00
